Time;durP1;ratioP1;P1;durP2;ratioP2;P2;SDS_P1;SDS_P2;PMS_P1;PMS_P2;Temp;Humidity;BMP_temperature;BMP_pressure;BME280_temperature;BME280_humidity;BME280_pressure;Samples;Min_cycle;Max_cycle;Signal;HPM_P1;HPM_P2
2023/03/11 00:00:12;;;;;;;2.80;1.05;;;;;;;9.96;46.19;100507.94;4974104;28;20558;-64
2023/03/11 00:02:39;;;;;;;5.38;1.40;;;;;;;9.81;46.47;100488.72;4988798;28;20513;-63
2023/03/11 00:05:04;;;;;;;8.20;1.20;;;;;;;9.78;45.92;100488.97;4972714;28;20062;-64
2023/03/11 00:07:30;;;;;;;2.08;0.88;;;;;;;9.82;46.13;100506.47;4988809;28;20041;-63
2023/03/11 00:09:55;;;;;;;8.73;0.85;;;;;;;9.84;45.01;100517.88;4973087;28;20100;-64
2023/03/11 00:12:21;;;;;;;3.17;0.68;;;;;;;9.83;46.02;100516.16;4975835;28;20097;-63
2023/03/11 00:14:46;;;;;;;0.70;0.32;;;;;;;9.74;45.69;100503.56;4960500;28;20038;-63
2023/03/11 00:17:11;;;;;;;3.15;0.90;;;;;;;9.71;46.33;100500.34;4977903;28;20132;-63
2023/03/11 00:19:37;;;;;;;3.17;0.77;;;;;;;9.74;45.43;100508.91;4976789;28;20026;-63
2023/03/11 00:22:02;;;;;;;1.58;0.40;;;;;;;9.64;45.85;100502.69;4976656;28;20026;-64
2023/03/11 00:24:28;;;;;;;2.53;1.40;;;;;;;9.61;45.77;100502.94;4977021;28;20027;-63
2023/03/11 00:26:53;;;;;;;4.85;1.15;;;;;;;9.61;46.32;100502.94;4992555;28;20035;-63
2023/03/11 00:29:18;;;;;;;7.57;0.90;;;;;;;9.70;45.98;100517.34;4976449;28;20043;-63
2023/03/11 00:31:44;;;;;;;3.05;0.80;;;;;;;9.69;45.75;100519.16;4977810;28;20043;-63
2023/03/11 00:34:09;;;;;;;8.00;0.73;;;;;;;9.69;45.59;100521.84;4992622;28;20085;-63
2023/03/11 00:36:35;;;;;;;7.43;0.70;;;;;;;9.58;45.52;100516.56;4993425;28;20030;-63
2023/03/11 00:39:01;;;;;;;2.20;0.90;;;;;;;9.58;45.39;100511.22;4976903;28;20049;-63
2023/03/11 00:41:27;;;;;;;4.80;1.05;;;;;;;9.59;46.12;100528.13;4993035;28;20506;-63
2023/03/11 00:43:54;;;;;;;2.15;1.02;;;;;;;9.62;45.37;100536.72;4976278;28;20049;-63
2023/03/11 00:46:19;;;;;;;5.43;0.90;;;;;;;9.62;45.58;100536.72;4992416;28;20034;-63
2023/03/11 00:48:45;;;;;;;3.25;1.35;;;;;;;9.54;45.76;100528.53;4976680;28;20045;-63
2023/03/11 00:51:13;;;;;;;8.90;1.15;;;;;;;9.44;44.91;100519.56;4960246;28;20042;-63
2023/03/11 00:53:39;;;;;;;7.38;0.60;;;;;;;9.52;45.34;100537.66;4976302;28;20034;-63
2023/03/11 00:56:09;;;;;;;3.20;1.40;;;;;;;9.53;45.40;100542.00;4977187;28;20066;-64
2023/03/11 00:58:35;;;;;;;12.00;1.13;;;;;;;9.57;45.55;100549.66;4959818;28;20046;-63
2023/03/11 01:01:14;;;;;;;8.88;0.85;;;;;;;9.57;45.26;100563.03;4975651;28;20483;-66
2023/03/11 01:03:40;;;;;;;1.30;0.52;;;;;;;9.57;45.08;100563.03;4977482;28;20054;-63
2023/03/11 01:06:06;;;;;;;4.22;0.70;;;;;;;9.56;45.57;100566.66;4943875;28;20035;-63
2023/03/11 01:08:32;;;;;;;2.75;0.82;;;;;;;9.50;45.36;100563.63;4975724;28;20041;-63
2023/03/11 01:10:58;;;;;;;5.30;1.17;;;;;;;9.56;45.46;100569.34;4975700;28;20039;-63
2023/03/11 01:13:25;;;;;;;7.15;1.83;;;;;;;9.53;45.42;100574.94;4975671;28;20376;-63
2023/03/11 01:15:51;;;;;;;6.70;1.50;;;;;;;9.50;45.46;100582.34;4959952;28;20030;-64
2023/03/11 01:18:17;;;;;;;5.93;1.70;;;;;;;9.49;45.22;100586.84;4975547;28;20499;-63
2023/03/11 01:20:42;;;;;;;5.43;2.80;;;;;;;9.40;45.75;100571.59;4959610;28;20066;-63
2023/03/11 01:23:08;;;;;;;11.43;1.05;;;;;;;9.40;44.96;100560.91;4958460;28;20031;-63
2023/03/11 01:25:34;;;;;;;5.72;1.20;;;;;;;9.48;45.66;100577.16;4975636;28;20041;-63
2023/03/11 01:28:00;;;;;;;4.60;1.08;;;;;;;9.41;45.17;100581.28;4976013;28;20113;-64
2023/03/11 01:30:26;;;;;;;5.60;1.00;;;;;;;9.45;45.45;100582.75;4959437;28;20045;-63
2023/03/11 01:32:53;;;;;;;1.83;0.93;;;;;;;9.38;45.47;100577.06;4976484;28;20035;-63
2023/03/11 01:35:21;;;;;;;8.32;1.05;;;;;;;9.36;45.09;100580.84;4975890;28;20034;-64
2023/03/11 01:37:46;;;;;;;4.85;1.20;;;;;;;9.45;44.75;100587.25;4975667;28;20051;-63
2023/03/11 01:40:23;;;;;;;2.95;0.73;;;;;;;9.42;45.44;100591.03;4975622;28;20034;-63
2023/03/11 01:42:49;;;;;;;3.80;0.90;;;;;;;9.41;45.11;100596.50;4975668;28;20026;-63
2023/03/11 01:45:40;;;;;;;6.07;1.42;;;;;;;9.40;45.57;100598.34;4974925;28;20101;-63
2023/03/11 01:48:07;;;;;;;2.60;0.60;;;;;;;9.26;45.35;100594.13;4975093;28;20498;-63
2023/03/11 01:50:40;;;;;;;3.58;1.02;;;;;;;9.35;45.03;100603.22;4955659;28;20518;-63
2023/03/11 01:53:06;;;;;;;1.48;1.10;;;;;;;9.35;44.73;100603.22;4948365;28;20031;-63
2023/03/11 01:55:31;;;;;;;6.43;1.63;;;;;;;9.32;45.10;100592.78;4958851;28;20438;-63
2023/03/11 01:57:59;;;;;;;2.70;1.30;;;;;;;9.30;45.22;100600.91;4960113;28;20019;-63
2023/03/11 02:00:24;;;;;;;4.22;1.73;;;;;;;9.33;45.27;100594.44;4958834;28;20467;-63
2023/03/11 02:02:56;;;;;;;4.40;1.00;;;;;;;9.32;45.45;100598.94;4974746;28;20055;-63
2023/03/11 02:05:23;;;;;;;7.88;1.63;;;;;;;9.31;44.90;100601.75;4958613;28;20031;-63
2023/03/11 02:07:49;;;;;;;11.57;2.55;;;;;;;9.30;44.65;100605.41;4974795;28;20078;-63
2023/03/11 02:10:17;;;;;;;7.75;2.17;;;;;;;9.20;45.09;100593.78;4974837;28;20022;-63
2023/03/11 02:12:43;;;;;;;11.90;1.58;;;;;;;9.27;45.37;100611.00;4974990;28;20031;-63
2023/03/11 02:15:09;;;;;;;5.80;2.17;;;;;;;9.27;44.88;100611.00;4974687;28;20030;-63
2023/03/11 02:17:36;;;;;;;11.52;1.45;;;;;;;9.26;45.10;100618.19;4974528;28;20034;-63
2023/03/11 02:20:18;;;;;;;5.93;1.25;;;;;;;9.26;44.88;100620.00;4974535;28;20115;-63
2023/03/11 02:22:43;;;;;;;7.90;1.55;;;;;;;9.24;44.92;100616.63;4974381;28;20158;-63
2023/03/11 02:25:24;;;;;;;8.05;1.30;;;;;;;9.22;45.15;100613.19;4958596;28;20538;-63
2023/03/11 02:27:51;;;;;;;4.25;0.98;;;;;;;9.21;45.69;100601.66;4974840;28;20041;-63
2023/03/11 02:30:18;;;;;;;3.85;1.10;;;;;;;9.20;45.33;100608.00;4974374;28;20035;-63
2023/03/11 02:32:47;;;;;;;4.03;0.98;;;;;;;9.17;44.95;100602.91;4974042;28;20101;-63
2023/03/11 02:35:13;;;;;;;6.38;1.05;;;;;;;9.19;44.82;100605.44;4974054;28;20050;-63
2023/03/11 02:37:44;;;;;;;2.50;0.75;;;;;;;9.04;45.62;100577.31;4974103;28;20089;-63
2023/03/11 02:40:37;;;;;;;5.22;1.40;;;;;;;9.16;44.75;100608.34;4958023;28;20038;-63
2023/03/11 02:43:07;;;;;;;3.40;1.20;;;;;;;9.14;45.08;100604.97;4972399;28;20026;-63
2023/03/11 02:45:33;;;;;;;2.45;1.25;;;;;;;8.96;45.88;100571.75;4958378;28;20462;-64
2023/03/11 02:47:59;;;;;;;5.05;1.38;;;;;;;9.12;45.51;100609.59;4974277;28;20046;-63
2023/03/11 02:50:25;;;;;;;4.20;1.88;;;;;;;9.04;45.39;100588.00;4957750;28;20038;-63
2023/03/11 02:52:51;;;;;;;7.88;1.65;;;;;;;9.02;44.69;100579.25;4973822;28;20055;-63
2023/03/11 02:55:19;;;;;;;3.58;1.33;;;;;;;9.11;44.92;100600.72;4957749;28;20081;-63
2023/03/11 02:57:48;;;;;;;12.52;1.73;;;;;;;9.03;45.67;100586.28;4974288;28;20115;-63
2023/03/11 03:00:15;;;;;;;4.53;1.65;;;;;;;9.07;44.79;100595.78;4973875;28;20054;-63
2023/03/11 03:02:41;;;;;;;4.90;1.13;;;;;;;9.09;45.66;100596.47;4973779;28;20118;-63
2023/03/11 03:05:07;;;;;;;3.17;1.35;;;;;;;9.10;46.04;100611.56;4957545;28;20093;-63
2023/03/11 03:07:33;;;;;;;5.05;1.60;;;;;;;9.07;45.57;100599.25;4973663;28;20093;-63
2023/03/11 03:09:58;;;;;;;7.80;2.00;;;;;;;9.03;45.43;100595.16;4957898;28;20035;-63
2023/03/11 03:12:23;;;;;;;7.75;1.80;;;;;;;9.10;45.96;100614.22;4957359;28;20062;-63
2023/03/11 03:14:49;;;;;;;9.82;2.38;;;;;;;9.10;45.33;100616.91;4973436;28;20513;-63
2023/03/11 03:17:14;;;;;;;6.55;1.60;;;;;;;9.12;45.78;100615.78;4941732;28;20487;-63
2023/03/11 03:19:40;;;;;;;3.72;1.20;;;;;;;9.12;45.52;100617.59;4975174;28;20505;-63
2023/03/11 03:22:05;;;;;;;3.03;1.42;;;;;;;9.12;45.14;100618.47;4973455;28;20042;-63
2023/03/11 03:24:30;;;;;;;4.82;1.23;;;;;;;9.10;45.98;100620.38;4958832;28;20486;-63
2023/03/11 03:26:56;;;;;;;10.00;1.77;;;;;;;9.09;45.12;100631.22;4941315;28;20046;-63
2023/03/11 03:29:21;;;;;;;8.25;1.80;;;;;;;9.03;45.42;100626.38;4973363;28;20039;-63
2023/03/11 03:31:47;;;;;;;5.75;1.58;;;;;;;9.08;45.55;100638.38;4941118;28;20057;-63
2023/03/11 03:34:12;;;;;;;2.72;1.40;;;;;;;9.07;45.77;100644.69;4957107;28;20125;-64
2023/03/11 03:36:37;;;;;;;4.95;1.30;;;;;;;9.05;45.79;100637.75;4973649;28;20114;-63
2023/03/11 03:39:03;;;;;;;2.88;0.95;;;;;;;9.07;45.42;100644.69;4956980;28;20035;-63
2023/03/11 03:41:29;;;;;;;3.67;1.20;;;;;;;9.07;45.34;100643.84;4957066;28;20093;-63
2023/03/11 03:43:54;;;;;;;4.13;1.90;;;;;;;8.96;45.11;100628.66;4957063;28;20035;-63
2023/03/11 03:46:20;;;;;;;2.65;1.40;;;;;;;9.04;45.48;100641.44;4956296;28;20514;-63
2023/03/11 03:48:46;;;;;;;1.55;1.45;;;;;;;9.04;45.21;100646.78;4957297;28;20030;-63
2023/03/11 03:51:13;;;;;;;4.75;1.35;;;;;;;8.95;45.62;100637.69;4957039;28;20045;-63
2023/03/11 03:53:39;;;;;;;3.10;1.25;;;;;;;9.05;46.05;100659.13;4956891;28;20101;-63
2023/03/11 03:56:07;;;;;;;1.88;1.30;;;;;;;9.05;45.84;100653.78;4953587;28;20035;-63
2023/03/11 03:58:32;;;;;;;2.85;1.23;;;;;;;9.01;45.42;100657.72;4957922;28;20065;-63
2023/03/11 04:00:59;;;;;;;6.43;1.48;;;;;;;8.90;45.40;100633.69;4973521;28;20483;-63
2023/03/11 04:03:25;;;;;;;5.40;1.90;;;;;;;9.03;45.45;100655.75;4972899;28;20122;-63
2023/03/11 04:05:50;;;;;;;3.85;1.35;;;;;;;9.04;45.40;100665.47;4956619;28;20031;-63
2023/03/11 04:08:16;;;;;;;7.28;1.85;;;;;;;8.93;46.23;100655.66;4972848;28;20391;-63
2023/03/11 04:10:41;;;;;;;1.42;1.00;;;;;;;9.04;45.70;100670.81;4972558;28;20169;-63
2023/03/11 04:13:07;;;;;;;3.97;1.15;;;;;;;9.01;45.60;100666.56;4973918;28;20566;-63
2023/03/11 04:15:32;;;;;;;4.95;1.17;;;;;;;9.00;46.23;100661.34;4957086;28;20023;-63
2023/03/11 04:17:57;;;;;;;11.65;1.70;;;;;;;8.92;45.75;100653.09;4956666;28;20534;-63
2023/03/11 04:20:23;;;;;;;9.88;1.40;;;;;;;9.02;45.57;100672.75;4956712;28;20031;-62
2023/03/11 04:22:48;;;;;;;8.88;2.17;;;;;;;9.01;45.07;100671.91;4974017;28;20046;-63
2023/03/11 04:25:14;;;;;;;7.68;1.63;;;;;;;9.01;45.20;100668.38;4972809;28;20098;-65
2023/03/11 04:27:42;;;;;;;4.95;1.55;;;;;;;8.98;45.35;100665.97;4973293;28;20497;-63
2023/03/11 04:30:08;;;;;;;4.35;1.77;;;;;;;8.89;45.03;100645.31;4956888;28;20102;-63
2023/03/11 04:32:34;;;;;;;2.92;1.48;;;;;;;8.91;46.08;100657.56;4972820;28;20035;-63
2023/03/11 04:34:59;;;;;;;5.97;1.30;;;;;;;8.92;45.23;100658.44;4956486;28;20093;-63
2023/03/11 04:37:28;;;;;;;6.72;1.42;;;;;;;8.87;45.67;100660.63;4973814;28;20035;-63
2023/03/11 04:39:53;;;;;;;4.18;1.70;;;;;;;8.82;45.17;100668.16;4956854;28;20030;-63
2023/03/11 04:42:19;;;;;;;5.63;2.00;;;;;;;8.77;45.28;100669.38;4940699;28;20383;-63
2023/03/11 04:44:44;;;;;;;2.90;1.80;;;;;;;8.76;45.66;100669.50;4956104;28;20046;-63
2023/03/11 04:47:10;;;;;;;7.55;1.58;;;;;;;8.74;45.12;100669.59;4972538;28;20503;-63
2023/03/11 04:49:35;;;;;;;7.00;1.90;;;;;;;8.72;45.75;100674.22;4973787;28;20565;-63
2023/03/11 04:52:01;;;;;;;3.08;1.98;;;;;;;8.67;45.00;100675.56;4972375;28;20023;-63
2023/03/11 04:54:26;;;;;;;10.45;1.63;;;;;;;8.66;45.33;100688.06;4972956;28;20034;-63
2023/03/11 04:56:51;;;;;;;2.47;1.20;;;;;;;8.61;45.19;100682.22;4942097;28;20413;-63
2023/03/11 04:59:17;;;;;;;2.55;1.50;;;;;;;8.59;44.88;100684.19;4924538;29;20529;-63
2023/03/11 05:01:42;;;;;;;9.02;2.00;;;;;;;8.38;44.96;100659.16;4958126;28;20031;-63
2023/03/11 05:04:08;;;;;;;8.30;2.40;;;;;;;8.55;45.83;100680.03;4958027;28;20360;-63
2023/03/11 05:06:33;;;;;;;5.43;1.65;;;;;;;8.55;45.01;100684.53;4958250;28;20102;-63
2023/03/11 05:08:58;;;;;;;5.88;1.70;;;;;;;8.53;45.08;100684.66;4956941;28;20114;-63
2023/03/11 05:11:24;;;;;;;4.43;2.30;;;;;;;8.52;45.96;100688.28;4940525;28;20522;-63
2023/03/11 05:13:49;;;;;;;5.47;1.60;;;;;;;8.51;45.73;100689.28;4956158;28;20044;-63
2023/03/11 05:16:15;;;;;;;8.85;1.88;;;;;;;8.42;45.94;100687.31;4956344;28;20422;-63
2023/03/11 05:18:40;;;;;;;7.95;1.90;;;;;;;8.46;45.41;100699.44;4925364;29;20456;-63
2023/03/11 05:21:05;;;;;;;2.92;2.55;;;;;;;8.35;45.49;100685.25;4924556;29;20507;-62
2023/03/11 05:23:31;;;;;;;10.77;2.05;;;;;;;8.42;45.93;100697.13;4940408;28;20024;-63
2023/03/11 05:25:56;;;;;;;3.40;2.42;;;;;;;8.38;45.84;100701.00;4924119;29;20044;-63
2023/03/11 05:28:22;;;;;;;4.65;1.48;;;;;;;8.27;45.25;100692.94;4940222;28;20126;-63
2023/03/11 05:30:47;;;;;;;5.03;1.55;;;;;;;8.26;45.89;100697.44;4924732;29;20039;-63
2023/03/11 05:33:13;;;;;;;6.03;2.53;;;;;;;8.35;45.70;100715.41;4955780;28;20552;-63
2023/03/11 05:35:38;;;;;;;5.57;1.63;;;;;;;8.26;45.36;100693.91;4940086;28;20507;-63
2023/03/11 05:38:03;;;;;;;6.68;2.30;;;;;;;8.34;45.63;100713.75;4955905;28;20522;-63
2023/03/11 05:40:29;;;;;;;6.13;1.92;;;;;;;8.36;45.25;100718.94;4940098;28;20035;-63
2023/03/11 05:42:54;;;;;;;8.82;2.00;;;;;;;8.36;46.27;100714.47;4956343;29;20031;-63
2023/03/11 05:45:20;;;;;;;2.50;1.80;;;;;;;8.37;46.08;100732.19;4939663;28;20057;-63
2023/03/11 05:47:45;;;;;;;6.10;2.30;;;;;;;8.38;45.83;100727.69;4939778;28;20039;-63
2023/03/11 05:50:11;;;;;;;5.40;2.38;;;;;;;8.40;45.47;100731.09;4955744;28;20500;-63
2023/03/11 05:52:36;;;;;;;7.40;1.95;;;;;;;8.36;45.84;100725.13;4939619;28;20035;-63
2023/03/11 05:55:02;;;;;;;6.70;2.35;;;;;;;8.27;46.32;100709.81;4955661;28;20418;-64
2023/03/11 05:57:28;;;;;;;7.97;2.28;;;;;;;8.39;45.97;100724.91;4957394;28;20050;-64
2023/03/11 05:59:53;;;;;;;12.07;2.53;;;;;;;8.38;45.16;100725.88;4955570;28;20037;-62
2023/03/11 06:02:20;;;;;;;5.30;2.28;;;;;;;8.40;45.54;100736.44;4956792;28;20074;-63
2023/03/11 06:04:46;;;;;;;4.15;2.28;;;;;;;8.31;46.34;100721.13;4923738;29;20032;-63
2023/03/11 06:07:13;;;;;;;3.50;1.60;;;;;;;8.40;46.16;100737.28;4939500;28;20023;-63
2023/03/11 06:09:39;;;;;;;19.20;2.78;;;;;;;8.41;45.47;100733.63;4955424;28;20102;-63
2023/03/11 06:12:04;;;;;;;6.20;2.08;;;;;;;8.34;45.79;100720.88;4956629;28;20118;-63
2023/03/11 06:14:31;;;;;;;6.97;2.70;;;;;;;8.45;46.36;100739.59;4954862;28;20082;-63
2023/03/11 06:16:57;;;;;;;6.05;2.50;;;;;;;8.46;46.13;100742.13;4939373;28;20040;-63
2023/03/11 06:19:23;;;;;;;7.93;2.47;;;;;;;8.48;45.36;100745.56;4939241;28;20546;-63
2023/03/11 06:21:49;;;;;;;7.63;2.15;;;;;;;8.43;45.32;100730.88;4955600;29;20023;-63
2023/03/11 06:24:14;;;;;;;7.97;2.13;;;;;;;8.56;46.13;100747.63;4955202;28;20034;-63
2023/03/11 06:26:39;;;;;;;4.75;2.45;;;;;;;8.61;46.33;100759.66;4955292;28;20527;-63
2023/03/11 06:29:10;;;;;;;7.15;2.70;;;;;;;8.69;45.77;100765.25;4938907;28;20067;-63
2023/03/11 06:31:36;;;;;;;4.10;2.20;;;;;;;8.83;45.53;100768.66;4939286;28;20035;-63
2023/03/11 06:34:01;;;;;;;9.15;2.40;;;;;;;8.94;46.12;100776.69;4954981;28;20097;-63
2023/03/11 06:36:27;;;;;;;5.65;2.50;;;;;;;8.97;45.80;100776.44;4939724;29;20041;-64
2023/03/11 06:38:53;;;;;;;5.25;2.75;;;;;;;9.01;45.99;100776.09;4938966;28;20451;-64
2023/03/11 06:41:18;;;;;;;5.72;2.22;;;;;;;9.02;45.43;100783.13;4955117;28;20035;-63
2023/03/11 06:43:44;;;;;;;5.88;2.15;;;;;;;9.01;45.62;100781.44;4955035;28;20039;-63
2023/03/11 06:46:11;;;;;;;3.08;2.08;;;;;;;9.00;46.23;100768.19;4955085;28;20503;-63
2023/03/11 06:48:37;;;;;;;4.82;2.05;;;;;;;9.06;46.19;100776.59;4955714;29;20030;-63
2023/03/11 06:51:02;;;;;;;4.15;2.03;;;;;;;9.18;45.47;100805.00;4970000;28;20406;-64
2023/03/11 06:53:29;;;;;;;4.10;2.30;;;;;;;9.24;45.78;100803.69;4974192;28;20063;-64
2023/03/11 06:55:59;;;;;;;8.70;2.33;;;;;;;9.30;46.02;100806.69;4957324;28;20117;-63
2023/03/11 06:58:24;;;;;;;8.27;2.72;;;;;;;9.25;45.39;100786.66;4973152;28;20031;-63
2023/03/11 07:00:49;;;;;;;11.82;2.78;;;;;;;9.39;45.84;100797.09;4972830;28;20390;-64
2023/03/11 07:03:15;;;;;;;6.95;2.00;;;;;;;9.55;45.75;100808.25;4956201;28;20502;-64
2023/03/11 07:05:40;;;;;;;8.10;2.90;;;;;;;9.67;45.28;100817.13;4972216;28;20059;-64
2023/03/11 07:08:06;;;;;;;6.68;2.42;;;;;;;9.71;45.12;100830.16;4956140;28;20444;-64
2023/03/11 07:10:31;;;;;;;2.33;1.88;;;;;;;9.76;45.76;100835.97;4972437;28;20122;-64
2023/03/11 07:12:57;;;;;;;9.95;3.00;;;;;;;9.85;45.02;100834.38;4956510;28;20034;-64
2023/03/11 07:15:22;;;;;;;7.90;2.38;;;;;;;9.97;45.13;100840.56;4947258;28;20410;-64
2023/03/11 07:17:47;;;;;;;4.97;2.38;;;;;;;10.20;45.20;100837.72;4955939;28;20038;-64
2023/03/11 07:20:13;;;;;;;6.63;2.97;;;;;;;10.31;45.15;100840.34;4955162;28;20042;-64
2023/03/11 07:22:38;;;;;;;8.32;2.17;;;;;;;10.53;45.07;100844.75;4939976;28;20073;-64
2023/03/11 07:25:04;;;;;;;6.35;2.53;;;;;;;10.71;44.88;100845.06;4972649;28;20390;-64
2023/03/11 07:27:29;;;;;;;4.38;2.60;;;;;;;10.88;44.89;100847.16;4956538;28;20165;-64
2023/03/11 07:29:55;;;;;;;14.55;2.45;;;;;;;11.07;45.00;100845.44;4973317;28;20038;-64
2023/03/11 07:32:20;;;;;;;5.50;2.15;;;;;;;11.20;44.86;100833.63;4974079;28;20035;-64
2023/03/11 07:34:45;;;;;;;6.70;2.70;;;;;;;11.47;43.95;100850.84;4972724;28;20062;-64
2023/03/11 07:37:11;;;;;;;7.00;2.70;;;;;;;11.68;44.34;100846.31;4955319;28;20483;-64
2023/03/11 07:39:36;;;;;;;10.13;3.00;;;;;;;11.79;44.19;100836.47;4972986;28;20106;-64
2023/03/11 07:42:03;;;;;;;3.90;2.30;;;;;;;12.07;43.84;100844.59;4955973;28;20078;-65
2023/03/11 07:44:28;;;;;;;9.55;2.75;;;;;;;12.21;44.25;100838.84;4972501;28;20552;-64
2023/03/11 07:46:54;;;;;;;8.13;2.92;;;;;;;12.46;43.45;100841.94;4956386;28;20114;-64
2023/03/11 07:49:19;;;;;;;8.32;3.38;;;;;;;12.73;43.74;100850.19;4956534;28;20050;-64
2023/03/11 07:51:45;;;;;;;5.50;2.33;;;;;;;12.87;43.97;100840.81;4973174;28;20125;-64
2023/03/11 07:54:11;;;;;;;6.85;2.67;;;;;;;13.14;42.96;100854.38;4940644;28;20117;-64
2023/03/11 07:56:37;;;;;;;9.18;2.92;;;;;;;13.22;43.47;100832.97;4971078;28;20037;-64
2023/03/11 07:59:03;;;;;;;4.50;3.05;;;;;;;13.53;43.48;100857.81;4972323;28;20039;-64
2023/03/11 08:01:34;;;;;;;3.45;2.95;;;;;;;13.72;42.20;100863.09;4973618;28;20034;-65
2023/03/11 08:04:02;;;;;;;7.40;2.67;;;;;;;13.90;42.76;100864.03;4973970;28;20030;-64
2023/03/11 08:06:30;;;;;;;6.72;2.30;;;;;;;14.04;43.06;100871.59;4962858;28;20050;-64
2023/03/11 08:08:56;;;;;;;8.98;3.70;;;;;;;14.20;42.95;100866.41;4953187;28;20543;-64
2023/03/11 08:11:22;;;;;;;13.57;3.75;;;;;;;14.31;42.28;100863.47;4959829;28;20407;-64
2023/03/11 08:13:48;;;;;;;15.48;3.72;;;;;;;14.44;41.43;100866.69;4972474;28;20503;-66
2023/03/11 08:16:16;;;;;;;7.88;3.10;;;;;;;14.70;41.34;100860.50;4972703;28;20030;-64
2023/03/11 08:18:42;;;;;;;8.23;2.65;;;;;;;14.90;41.70;100868.28;4974470;28;20034;-65
2023/03/11 08:21:11;;;;;;;12.50;3.40;;;;;;;15.01;41.16;100856.41;4956653;28;20057;-64
2023/03/11 08:23:37;;;;;;;6.75;1.98;;;;;;;15.25;42.35;100872.75;4972605;28;20295;-66
2023/03/11 08:26:07;;;;;;;6.57;2.25;;;;;;;15.43;41.81;100861.91;4972692;28;20166;-64
2023/03/11 08:28:33;;;;;;;6.10;2.53;;;;;;;15.59;41.36;100854.78;4956462;28;20046;-65
2023/03/11 08:30:58;;;;;;;5.45;2.42;;;;;;;15.85;40.54;100862.00;4973051;28;20022;-65
2023/03/11 08:33:24;;;;;;;4.45;2.38;;;;;;;16.02;40.81;100869.16;4959610;28;20049;-65
2023/03/11 08:35:49;;;;;;;4.38;2.10;;;;;;;16.20;40.16;100865.34;4944462;28;20045;-65
2023/03/11 08:38:15;;;;;;;9.23;2.38;;;;;;;16.37;39.78;100859.97;4976683;28;20041;-65
2023/03/11 08:40:40;;;;;;;12.70;2.08;;;;;;;16.55;39.67;100861.56;4977612;28;20046;-64
2023/03/11 08:43:06;;;;;;;7.65;2.47;;;;;;;16.61;40.30;100844.66;4960181;28;20031;-65
2023/03/11 08:45:32;;;;;;;4.55;2.38;;;;;;;16.76;40.81;100853.81;4960499;28;20514;-65
2023/03/11 08:47:58;;;;;;;6.10;2.08;;;;;;;16.99;39.83;100855.84;4960042;28;20038;-65
2023/03/11 08:50:23;;;;;;;6.72;2.60;;;;;;;17.15;40.00;100858.53;4977317;28;20464;-65
2023/03/11 08:52:49;;;;;;;9.10;2.30;;;;;;;17.24;39.61;100862.91;4960154;28;20035;-65
2023/03/11 08:55:17;;;;;;;4.80;1.58;;;;;;;17.28;39.56;100869.69;4976139;28;20490;-65
2023/03/11 08:57:43;;;;;;;2.72;1.70;;;;;;;17.30;39.39;100873.06;4976324;28;20101;-65
2023/03/11 09:00:10;;;;;;;9.25;1.83;;;;;;;17.36;38.84;100878.63;4976037;28;20038;-65
2023/03/11 09:02:35;;;;;;;7.60;1.63;;;;;;;17.44;39.56;100885.91;4976042;28;20451;-65
2023/03/11 09:05:00;;;;;;;1.77;1.45;;;;;;;17.56;38.64;100865.56;4975986;28;20046;-65
2023/03/11 09:07:26;;;;;;;4.75;1.42;;;;;;;17.91;38.41;100872.41;4959813;28;20118;-65
2023/03/11 09:09:53;;;;;;;9.82;1.70;;;;;;;18.10;37.93;100879.28;4976627;28;20034;-64
2023/03/11 09:12:19;;;;;;;2.80;1.40;;;;;;;18.13;38.03;100885.19;4976071;28;20038;-64
2023/03/11 09:14:44;;;;;;;2.80;1.40;;;;;;;17.98;38.42;100885.09;4977126;28;20414;-64
2023/03/11 09:17:10;;;;;;;2.83;0.82;;;;;;;18.19;37.67;100891.78;4975808;28;20392;-63
2023/03/11 09:19:36;;;;;;;5.45;1.02;;;;;;;18.34;37.17;100865.63;4975188;28;20089;-63
2023/03/11 09:22:03;;;;;;;5.03;1.30;;;;;;;18.56;37.00;100890.06;4975161;28;20027;-63
2023/03/11 09:24:29;;;;;;;7.90;1.40;;;;;;;18.69;37.00;100899.50;4976058;28;20542;-62
2023/03/11 09:26:54;;;;;;;1.98;1.23;;;;;;;18.89;36.96;100895.28;4975376;28;20046;-62
2023/03/11 09:29:19;;;;;;;1.63;0.80;;;;;;;19.20;36.52;100898.75;4959223;28;20455;-62
2023/03/11 09:31:45;;;;;;;3.33;1.13;;;;;;;19.43;36.69;100898.75;4976542;28;20069;-63
2023/03/11 09:34:11;;;;;;;2.28;0.90;;;;;;;19.46;35.87;100885.63;4975391;28;20026;-62
2023/03/11 09:36:40;;;;;;;0.60;0.60;;;;;;;19.74;35.28;100892.13;4975955;28;20037;-63
2023/03/11 09:39:05;;;;;;;2.92;0.73;;;;;;;19.99;35.10;100887.22;4975618;28;20122;-63
2023/03/11 09:41:40;;;;;;;4.57;1.00;;;;;;;20.28;35.64;100895.41;4959094;28;20161;-63
2023/03/11 09:44:14;;;;;;;1.08;0.93;;;;;;;20.84;34.76;100892.88;4974633;28;20035;-63
2023/03/11 09:47:03;;;;;;;4.40;0.88;;;;;;;22.59;32.61;100894.31;4993739;28;20065;-63
2023/03/11 09:49:54;;;;;;;6.30;2.03;;;;;;;25.15;29.38;100898.47;4958958;28;20035;-63
2023/03/11 09:52:29;;;;;;;1.42;0.75;;;;;;;24.34;30.47;100912.78;4976321;28;20019;-63
2023/03/11 09:54:54;;;;;;;2.45;0.50;;;;;;;24.03;31.60;100895.41;4975338;28;20425;-63
2023/03/11 09:57:26;;;;;;;1.38;0.68;;;;;;;23.98;30.89;100901.53;4974791;28;20118;-63
2023/03/11 09:59:51;;;;;;;2.15;0.52;;;;;;;23.21;31.79;100909.56;4974845;28;20030;-63
2023/03/11 10:02:19;;;;;;;3.33;0.40;;;;;;;22.27;32.75;100902.38;4974895;28;20150;-63
2023/03/11 10:05:01;;;;;;;2.63;0.60;;;;;;;21.36;33.21;100900.72;4958701;28;20031;-62
2023/03/11 10:07:32;;;;;;;1.45;0.35;;;;;;;20.65;33.23;100901.69;4958578;28;20035;-62
2023/03/11 10:09:58;;;;;;;1.38;0.40;;;;;;;20.10;33.70;100908.50;4975206;28;20484;-62
2023/03/11 10:12:42;;;;;;;4.82;0.70;;;;;;;19.63;34.03;100924.34;4974821;28;20046;-62
2023/03/11 10:15:35;;;;;;;1.33;0.75;;;;;;;19.42;33.39;100918.78;4975992;28;20059;-63
2023/03/11 10:18:07;;;;;;;0.60;0.32;;;;;;;18.92;33.67;100912.06;4976480;28;20061;-62
2023/03/11 10:20:47;;;;;;;3.28;1.10;;;;;;;18.83;33.72;100924.00;4991026;28;20035;-62
2023/03/11 10:23:47;;;;;;;2.10;0.50;;;;;;;18.86;33.34;100934.50;4991148;28;20045;-63
2023/03/11 10:26:22;;;;;;;1.95;0.73;;;;;;;19.39;32.32;100914.56;4991041;28;20043;-62
2023/03/11 10:28:55;;;;;;;3.00;0.45;;;;;;;19.72;31.76;100915.09;4974592;28;20035;-62
2023/03/11 10:31:22;;;;;;;2.88;1.48;;;;;;;19.61;32.31;100912.81;4974627;28;20037;-62
2023/03/11 10:33:55;;;;;;;2.20;0.50;;;;;;;19.66;32.48;100899.50;4990981;28;20027;-63
2023/03/11 10:36:26;;;;;;;;;;;;;;;19.79;32.66;100910.59;4958790;28;20034;-62
2023/03/11 10:38:53;;;;;;;1.08;0.40;;;;;;;19.57;32.28;100881.63;4990760;28;19922;-62
2023/03/11 10:41:40;;;;;;;2.50;0.82;;;;;;;19.75;32.25;100910.13;4955496;28;20047;-62
2023/03/11 10:44:12;;;;;;;1.40;0.57;;;;;;;19.96;32.28;100909.38;4956471;28;20035;-62
2023/03/11 10:46:38;;;;;;;2.20;0.55;;;;;;;20.35;31.74;100910.97;4939046;28;20043;-62
2023/03/11 10:49:07;;;;;;;0.60;0.50;;;;;;;21.08;31.21;100918.94;4955162;28;20484;-62
2023/03/11 10:51:35;;;;;;;2.00;0.75;;;;;;;21.01;30.34;100915.25;4939403;29;20471;-63
2023/03/11 10:54:02;;;;;;;6.07;0.52;;;;;;;20.51;31.86;100908.88;4938770;28;20039;-62
2023/03/11 10:56:36;;;;;;;2.15;0.55;;;;;;;20.19;31.87;100923.72;4953632;28;20031;-62
2023/03/11 10:59:04;;;;;;;4.13;0.55;;;;;;;19.80;32.29;100939.47;4954535;28;20031;-63
2023/03/11 11:01:29;;;;;;;3.70;0.43;;;;;;;19.25;32.41;100922.66;4954656;28;20032;-62
2023/03/11 11:03:56;;;;;;;4.18;0.70;;;;;;;18.99;32.33;100945.59;4955132;29;20391;-62
2023/03/11 11:06:30;;;;;;;5.57;0.70;;;;;;;18.76;31.88;100950.16;4954493;28;20039;-62
2023/03/11 11:09:19;;;;;;;0.98;0.30;;;;;;;18.97;31.66;100950.38;4954563;28;20038;-62
2023/03/11 11:12:08;;;;;;;4.18;0.45;;;;;;;20.07;30.65;100938.00;4954821;28;20035;-63
2023/03/11 11:14:44;;;;;;;7.38;1.05;;;;;;;21.26;28.96;100922.03;4954277;28;20049;-63
2023/03/11 11:17:21;;;;;;;5.47;1.50;;;;;;;21.45;29.28;100915.88;4955592;28;20035;-63
2023/03/11 11:19:47;;;;;;;5.10;0.50;;;;;;;21.64;29.36;100915.19;4954279;28;20031;-63
2023/03/11 11:22:17;;;;;;;3.67;0.60;;;;;;;22.17;29.11;100932.75;4954219;28;20031;-62
2023/03/11 11:24:44;;;;;;;2.20;0.57;;;;;;;22.47;29.63;100928.69;4938598;29;20093;-63
2023/03/11 11:27:21;;;;;;;1.25;0.70;;;;;;;23.14;27.95;100930.63;4922784;29;20047;-63
2023/03/11 11:30:02;;;;;;;2.95;0.60;;;;;;;22.82;28.68;100925.91;4955588;28;20126;-63